Airfield :
LOGIN :

Register | Disclaimer

   EN    FR    IT 

 










Legend :    VFR   Marginal VFR   IFR   Intensive IFR   Very Intensive IFR
Visi :
Ceiling :
>= 8 km
>= 3000ft
5 to 8 km
1000 to 3000 ft
1500m to 5 km
500 to 1000 ft
800 to 1500m
200 to 500 ft
< 800m
< 200 ft
Symbols :   Thunderstorms  Fog  Heavy snow  Heavy precipitations  Wind > 20 kt
SIGMETs :     Misc.  Thunderstorms  Icing  Turbulence  Mountain Waves  Volcanic Ashes






- Airport Elevation : 83 ft
- IATA code : LHR


EGLL - London Heathrow

CURRENT METAR :
  • 262120Z AUTO 22010KT 190V250 9999 BKN012 09/08 Q1006 TEMPO SCT012

EXPIRED METARs :
  • 262050Z AUTO 22010KT 180V250 9999 SCT015 09/08 Q1006 TEMPO BKN012
  • 262020Z AUTO 21010KT 180V240 9999 NCD 09/08 Q1005 TEMPO BKN014
  • 261950Z AUTO 21009KT 180V260 9999 SCT022 09/09 Q1006 TEMPO BKN012
  • 261920Z AUTO 22011KT 190V260 9999 SCT018 BKN023 09/09 Q1006 TEMPO BKN012
  • 261850Z 22010KT 9999 -RA SCT012 BKN018 BKN023 10/09 Q1006 TEMPO BKN012
  • 261820Z 21013KT 180V240 9999 -RA FEW008 BKN013 OVC024 09/09 Q1006 TEMPO SCT013

TAF TAF EGLL
Valid from the 26 at 18:00 until the 28 at 00:00 UTC


261656Z 2618/2724 20012KT 9999 SCT030
TEMPO 2618/2620 7000 -RA BKN014
PROB30
TEMPO 2619/2703 BKN006
PROB30
TEMPO 2703/2718 6000 SHRA BKN014
PROB40
TEMPO 2718/2724 4000 SHRA BKN009



MET'MAP, your aeronautical weather chart ! - Copyright ORBIFLY December 2007 - Disclaimer

ORBIFLY MET'MAP TEAM :

Programming & Development : Alexandra Zaïnal
Concept & original design : Baudouin d'Aumeries
Assistance for programming : Marc-Olivier Méhu
Technical & hardware support : Manuel Goepfert

Contact : metmap@orbifly.com




SOURCES & CREDITS :

   NOAA